createdAt,value
2018-04-30T00:00:29.325Z,0.00
2018-04-30T00:01:29.343Z,0.00
2018-04-30T00:02:29.353Z,0.00
2018-04-30T00:03:29.371Z,0.00
2018-04-30T00:04:29.382Z,0.00
2018-04-30T00:05:29.396Z,0.00
2018-04-30T00:06:29.407Z,0.00
2018-04-30T00:07:29.418Z,0.00
2018-04-30T00:08:29.436Z,0.00
2018-04-30T00:09:29.452Z,0.00
2018-04-30T00:10:29.465Z,0.00
2018-04-30T00:11:29.503Z,0.00
2018-04-30T00:12:29.505Z,0.00
2018-04-30T00:13:29.500Z,0.00
2018-04-30T00:14:29.536Z,0.00
2018-04-30T00:15:29.532Z,0.00
2018-04-30T00:16:29.543Z,0.00
2018-04-30T00:17:29.555Z,0.00
2018-04-30T00:18:29.580Z,0.00
2018-04-30T00:19:29.585Z,0.00
2018-04-30T00:20:29.609Z,0.00
2018-04-30T00:21:29.608Z,0.00
2018-04-30T00:22:29.622Z,0.00
2018-04-30T00:23:29.640Z,0.00
2018-04-30T00:24:29.680Z,0.00
2018-04-30T00:25:29.703Z,0.00
2018-04-30T00:26:29.676Z,0.00
2018-04-30T00:27:29.690Z,0.00
2018-04-30T00:28:29.707Z,0.00
2018-04-30T00:29:29.718Z,0.00
2018-04-30T00:30:29.734Z,0.00
2018-04-30T00:31:29.743Z,0.00
2018-04-30T00:32:29.759Z,0.00
2018-04-30T00:33:29.785Z,0.00
2018-04-30T00:34:29.783Z,0.00
2018-04-30T00:35:29.797Z,0.00
2018-04-30T00:36:29.813Z,0.00
2018-04-30T00:37:29.824Z,0.00
2018-04-30T00:38:29.844Z,0.00
2018-04-30T00:39:29.883Z,0.00
2018-04-30T00:40:29.866Z,0.00
2018-04-30T00:41:29.882Z,0.00
2018-04-30T00:42:29.892Z,0.00
2018-04-30T00:43:29.901Z,0.00
2018-04-30T00:44:29.943Z,0.00
2018-04-30T00:45:30.047Z,0.00
2018-04-30T00:46:29.948Z,0.00
2018-04-30T00:47:29.957Z,0.00
2018-04-30T00:48:29.972Z,0.00
2018-04-30T00:49:29.983Z,0.00
2018-04-30T00:50:29.999Z,0.00
2018-04-30T00:51:30.012Z,0.00
2018-04-30T00:52:30.025Z,0.00
2018-04-30T00:53:30.037Z,0.00
2018-04-30T00:54:30.056Z,0.00
2018-04-30T00:55:30.066Z,0.00
2018-04-30T00:56:30.080Z,0.00
2018-04-30T00:57:30.094Z,0.00
2018-04-30T00:58:30.141Z,0.00
2018-04-30T00:59:30.121Z,0.00
2018-04-30T01:00:30.152Z,0.00
2018-04-30T01:01:30.142Z,0.00
2018-04-30T01:02:30.154Z,0.00
2018-04-30T01:03:30.230Z,0.00
2018-04-30T01:04:30.184Z,0.00
2018-04-30T01:05:30.198Z,0.00
2018-04-30T01:06:30.215Z,0.00
2018-04-30T01:07:30.230Z,0.00
2018-04-30T01:08:30.239Z,0.00
2018-04-30T01:09:30.250Z,0.00
2018-04-30T01:10:30.264Z,0.00
2018-04-30T01:11:30.281Z,0.00
2018-04-30T01:12:30.288Z,0.00
2018-04-30T01:13:30.299Z,0.00
2018-04-30T01:14:30.317Z,0.00
2018-04-30T01:15:30.349Z,0.00
2018-04-30T01:16:30.405Z,0.00
2018-04-30T01:17:30.363Z,0.00
2018-04-30T01:18:30.385Z,0.00
2018-04-30T01:19:30.383Z,0.00
2018-04-30T01:20:30.392Z,0.00
2018-04-30T01:21:30.404Z,0.00
2018-04-30T01:22:30.420Z,0.00
2018-04-30T01:23:30.475Z,0.00
2018-04-30T01:24:30.443Z,0.00
2018-04-30T01:25:30.460Z,0.00
2018-04-30T01:26:30.475Z,0.00
2018-04-30T01:27:30.484Z,0.00
2018-04-30T01:28:30.499Z,0.00
2018-04-30T01:29:30.506Z,0.00
2018-04-30T01:30:30.522Z,0.00
2018-04-30T01:31:30.572Z,0.00
2018-04-30T01:32:30.547Z,0.00
2018-04-30T01:33:30.563Z,0.00
2018-04-30T01:34:30.577Z,0.00
2018-04-30T01:35:30.584Z,0.00
2018-04-30T01:36:30.599Z,0.00
2018-04-30T01:37:30.614Z,0.00
2018-04-30T01:38:30.625Z,0.00
2018-04-30T01:39:30.636Z,0.00
2018-04-30T01:40:30.683Z,0.00
2018-04-30T01:41:30.664Z,0.00
2018-04-30T01:42:30.680Z,0.00
2018-04-30T01:43:30.688Z,0.00
2018-04-30T01:44:30.703Z,0.00
2018-04-30T01:45:30.719Z,0.00
2018-04-30T01:46:30.748Z,0.00
2018-04-30T01:47:30.751Z,0.00
2018-04-30T01:48:30.761Z,0.00
2018-04-30T01:49:30.774Z,0.00
2018-04-30T01:50:30.780Z,0.00
2018-04-30T01:51:30.792Z,0.00
2018-04-30T01:52:30.810Z,0.00
2018-04-30T01:53:30.838Z,0.00
2018-04-30T01:54:30.832Z,0.00
2018-04-30T01:55:30.847Z,0.00
2018-04-30T01:56:30.856Z,0.00
2018-04-30T01:57:30.872Z,0.00
2018-04-30T01:58:30.886Z,0.00
2018-04-30T01:59:30.902Z,0.00
2018-04-30T02:00:30.906Z,0.00
2018-04-30T02:01:30.921Z,0.00
2018-04-30T02:02:30.936Z,0.00
2018-04-30T02:03:30.957Z,0.00
2018-04-30T02:04:30.963Z,0.00
2018-04-30T02:05:30.972Z,0.00
2018-04-30T02:06:30.983Z,0.00
2018-04-30T02:07:30.995Z,0.00
2018-04-30T02:08:31.013Z,0.00
2018-04-30T02:09:31.036Z,0.00
2018-04-30T02:10:31.042Z,0.00
2018-04-30T02:11:31.046Z,0.00
2018-04-30T02:12:31.060Z,0.00
2018-04-30T02:13:31.072Z,0.00
2018-04-30T02:14:31.097Z,0.00
2018-04-30T02:15:31.095Z,0.00
2018-04-30T02:16:31.113Z,0.00
2018-04-30T02:17:31.146Z,0.00
2018-04-30T02:18:31.131Z,0.00
2018-04-30T02:19:31.145Z,0.00
2018-04-30T02:20:31.164Z,0.00
2018-04-30T02:21:31.170Z,0.00
2018-04-30T02:22:31.225Z,0.00
2018-04-30T02:23:31.193Z,0.00
2018-04-30T02:24:31.233Z,0.00
2018-04-30T02:25:31.224Z,0.00
2018-04-30T02:26:31.236Z,0.00
2018-04-30T02:27:31.242Z,0.00
2018-04-30T02:28:31.266Z,0.00
2018-04-30T02:29:31.270Z,0.00
2018-04-30T02:30:31.279Z,0.00
2018-04-30T02:31:31.293Z,0.00
2018-04-30T02:32:31.304Z,0.00
2018-04-30T02:33:31.383Z,0.00
2018-04-30T02:34:31.330Z,0.00
2018-04-30T02:35:31.365Z,0.00
2018-04-30T02:36:31.352Z,0.00
2018-04-30T02:37:31.360Z,0.00
2018-04-30T02:38:31.384Z,0.00
2018-04-30T02:39:31.391Z,0.00
2018-04-30T02:40:31.398Z,0.00
2018-04-30T02:41:31.413Z,0.00
2018-04-30T02:42:31.431Z,0.00
2018-04-30T02:43:31.467Z,0.00
2018-04-30T02:44:31.445Z,0.00
2018-04-30T02:45:31.458Z,0.00
2018-04-30T02:46:31.475Z,0.00
2018-04-30T02:47:31.496Z,0.00
2018-04-30T02:48:31.496Z,0.00
2018-04-30T02:49:31.507Z,0.00
2018-04-30T02:50:31.532Z,0.00
2018-04-30T02:51:31.537Z,0.00
2018-04-30T02:52:39.479Z,0.00
2018-04-30T02:54:36.071Z,0.00
2018-04-30T02:55:36.173Z,0.00
2018-04-30T02:56:36.141Z,0.00
2018-04-30T02:57:44.019Z,0.00
2018-04-30T02:59:40.824Z,0.00
2018-04-30T03:00:40.597Z,0.00
2018-04-30T03:02:45.088Z,0.00
2018-04-30T03:03:45.421Z,0.00
2018-04-30T03:05:49.673Z,0.00
2018-04-30T03:06:57.596Z,0.00
2018-04-30T03:08:43.107Z,0.00
2018-04-30T03:09:51.179Z,0.00
2018-04-30T03:11:47.892Z,0.00
2018-04-30T03:12:47.709Z,0.00
2018-04-30T03:14:52.424Z,0.00
2018-04-30T03:15:52.379Z,0.00
2018-04-30T03:17:56.893Z,0.00
2018-04-30T03:18:56.776Z,0.00
2018-04-30T03:21:02.441Z,0.00
2018-04-30T03:22:02.227Z,0.00
2018-04-30T03:24:06.775Z,0.00
2018-04-30T03:25:06.919Z,0.00
2018-04-30T03:26:14.865Z,0.00
2018-04-30T03:28:11.497Z,0.00
2018-04-30T03:29:11.313Z,0.00
2018-04-30T03:31:15.873Z,0.00
2018-04-30T03:32:16.156Z,0.00
2018-04-30T03:34:09.358Z,0.00
2018-04-30T03:35:09.636Z,0.00
2018-04-30T03:36:09.513Z,0.00
2018-04-30T03:37:09.733Z,0.00
2018-04-30T03:38:09.372Z,0.00
2018-04-30T03:39:09.465Z,0.00
2018-04-30T03:40:09.396Z,0.00
2018-04-30T03:41:09.441Z,0.00
2018-04-30T03:42:09.409Z,0.00
2018-04-30T03:43:09.417Z,0.00
2018-04-30T03:44:09.439Z,0.00
2018-04-30T03:45:09.440Z,0.00
2018-04-30T03:46:09.451Z,0.00
2018-04-30T03:47:09.467Z,4.00
2018-04-30T03:48:09.471Z,4.00
2018-04-30T03:49:09.483Z,4.00
2018-04-30T03:50:09.491Z,0.00
2018-04-30T03:51:09.516Z,4.00
2018-04-30T03:52:09.513Z,4.00
2018-04-30T03:53:09.531Z,4.00
2018-04-30T03:54:09.537Z,8.00
2018-04-30T03:55:09.553Z,8.00
2018-04-30T03:56:09.572Z,8.00
2018-04-30T03:57:09.566Z,8.00
2018-04-30T03:58:09.574Z,8.00
2018-04-30T03:59:09.593Z,12.00
2018-04-30T04:00:09.598Z,12.00
2018-04-30T04:01:09.607Z,12.00
2018-04-30T04:02:09.617Z,12.00
2018-04-30T04:03:09.705Z,12.00
2018-04-30T04:04:09.649Z,16.00
2018-04-30T04:05:09.661Z,16.00
2018-04-30T04:06:09.656Z,20.00
2018-04-30T04:07:09.668Z,16.00
2018-04-30T04:08:09.677Z,16.00
2018-04-30T04:09:09.691Z,20.00
2018-04-30T04:10:09.696Z,20.00
2018-04-30T04:11:09.712Z,24.00
2018-04-30T04:12:09.719Z,28.00
2018-04-30T04:13:09.729Z,32.00
2018-04-30T04:14:09.739Z,32.00
2018-04-30T04:15:09.747Z,36.00
2018-04-30T04:16:09.757Z,40.00
2018-04-30T04:17:09.772Z,48.00
2018-04-30T04:18:09.783Z,48.00
2018-04-30T04:19:09.824Z,56.00
2018-04-30T04:20:09.801Z,68.00
2018-04-30T04:21:09.808Z,80.00
2018-04-30T04:22:09.820Z,92.00
2018-04-30T04:23:09.831Z,120.00
2018-04-30T04:24:09.840Z,140.00
2018-04-30T04:25:09.850Z,136.00
2018-04-30T04:26:09.856Z,140.00
2018-04-30T04:27:09.871Z,152.00
2018-04-30T04:28:09.882Z,156.00
2018-04-30T04:29:09.890Z,160.00
2018-04-30T04:30:09.901Z,180.00
2018-04-30T04:31:09.911Z,208.00
2018-04-30T04:32:09.926Z,220.00
2018-04-30T04:33:09.930Z,228.00
2018-04-30T04:34:09.947Z,236.00
2018-04-30T04:35:09.954Z,248.00
2018-04-30T04:36:09.963Z,256.00
2018-04-30T04:37:09.974Z,264.00
2018-04-30T04:38:09.981Z,256.00
2018-04-30T04:39:09.989Z,256.00
2018-04-30T04:40:10.001Z,248.00
2018-04-30T04:41:10.013Z,248.00
2018-04-30T04:42:10.035Z,260.00
2018-04-30T04:43:10.029Z,284.00
2018-04-30T04:44:10.049Z,312.00
2018-04-30T04:45:10.055Z,332.00
2018-04-30T04:46:10.060Z,336.00
2018-04-30T04:47:10.072Z,348.00
2018-04-30T04:48:10.081Z,368.00
2018-04-30T04:49:10.089Z,352.00
2018-04-30T04:50:10.108Z,284.00
2018-04-30T04:51:10.115Z,232.00
2018-04-30T04:52:10.125Z,240.00
2018-04-30T04:53:10.139Z,244.00
2018-04-30T04:54:10.145Z,228.00
2018-04-30T04:55:10.151Z,228.00
2018-04-30T04:56:10.171Z,228.00
2018-04-30T04:57:10.175Z,240.00
2018-04-30T04:58:10.181Z,264.00
2018-04-30T04:59:10.194Z,272.00
2018-04-30T05:00:10.220Z,264.00
2018-04-30T05:01:10.230Z,284.00
2018-04-30T05:02:10.255Z,292.00
2018-04-30T05:03:10.231Z,300.00
2018-04-30T05:04:10.249Z,416.00
2018-04-30T05:05:10.252Z,540.00
2018-04-30T05:06:10.276Z,648.00
2018-04-30T05:07:10.303Z,756.00
2018-04-30T05:08:10.286Z,904.00
2018-04-30T05:09:10.292Z,1112.00
2018-04-30T05:10:10.340Z,1204.00
2018-04-30T05:11:10.313Z,1140.00
2018-04-30T05:12:10.320Z,1080.00
2018-04-30T05:13:10.361Z,1048.00
2018-04-30T05:14:10.342Z,1060.00
2018-04-30T05:15:10.349Z,1112.00
2018-04-30T05:16:10.360Z,1152.00
2018-04-30T05:17:10.377Z,1172.00
2018-04-30T05:18:10.420Z,1180.00
2018-04-30T05:19:10.390Z,1260.00
2018-04-30T05:20:10.474Z,1296.00
2018-04-30T05:21:10.427Z,1404.00
2018-04-30T05:22:10.424Z,1404.00
2018-04-30T05:23:10.431Z,1324.00
2018-04-30T05:24:10.444Z,1276.00
2018-04-30T05:25:10.450Z,1180.00
2018-04-30T05:26:10.471Z,1084.00
2018-04-30T05:27:10.477Z,992.00
2018-04-30T05:28:10.481Z,904.00
2018-04-30T05:29:10.497Z,840.00
2018-04-30T05:30:10.501Z,772.00
2018-04-30T05:31:10.509Z,708.00
2018-04-30T05:32:10.520Z,652.00
2018-04-30T05:33:10.606Z,616.00
2018-04-30T05:34:10.547Z,596.00
2018-04-30T05:35:10.553Z,600.00
2018-04-30T05:36:10.565Z,604.00
2018-04-30T05:37:10.589Z,600.00
2018-04-30T05:38:10.585Z,596.00
2018-04-30T05:39:10.590Z,592.00
2018-04-30T05:40:10.602Z,628.00
2018-04-30T05:41:10.617Z,692.00
2018-04-30T05:42:10.622Z,736.00
2018-04-30T05:43:10.634Z,708.00
2018-04-30T05:44:10.724Z,628.00
2018-04-30T05:45:10.649Z,612.00
2018-04-30T05:46:10.662Z,692.00
2018-04-30T05:47:10.669Z,808.00
2018-04-30T05:48:10.685Z,944.00
2018-04-30T05:49:10.689Z,1124.00
2018-04-30T05:50:10.702Z,1352.00
2018-04-30T05:51:10.713Z,1576.00
2018-04-30T05:52:10.719Z,1816.00
2018-04-30T05:53:10.728Z,2056.00
2018-04-30T05:54:10.740Z,2280.00
2018-04-30T05:55:10.832Z,2488.00
2018-04-30T05:56:10.768Z,2672.00
2018-04-30T05:57:10.771Z,2828.00
2018-04-30T05:58:10.792Z,3024.00
2018-04-30T05:59:10.788Z,3236.00
2018-04-30T06:00:10.923Z,3444.00
2018-04-30T06:01:10.808Z,3640.00
2018-04-30T06:02:10.823Z,3752.00
2018-04-30T06:03:10.859Z,3788.00
2018-04-30T06:04:10.846Z,3772.00
2018-04-30T06:05:10.864Z,3548.00
2018-04-30T06:06:10.858Z,3060.00
2018-04-30T06:07:10.971Z,2464.00
2018-04-30T06:08:19.753Z,2056.00
2018-04-30T06:10:04.517Z,2276.00
2018-04-30T06:11:04.432Z,2868.00
2018-04-30T06:13:08.871Z,3876.00
2018-04-30T06:14:09.027Z,3768.00
2018-04-30T06:16:13.091Z,3532.00
2018-04-30T06:17:13.462Z,3304.00
2018-04-30T06:19:06.329Z,3024.00
2018-04-30T06:20:06.520Z,2760.00
2018-04-30T06:22:11.126Z,2184.00
2018-04-30T06:23:10.824Z,2004.00
2018-04-30T06:25:16.349Z,1896.00
2018-04-30T06:26:16.402Z,1880.00
2018-04-30T06:27:16.515Z,1940.00
2018-04-30T06:28:16.661Z,1872.00
2018-04-30T06:29:16.382Z,1892.00
2018-04-30T06:30:16.402Z,1748.00
2018-04-30T06:31:16.523Z,1736.00
2018-04-30T06:32:16.416Z,1800.00
2018-04-30T06:33:16.423Z,1852.00
2018-04-30T06:34:16.464Z,1832.00
2018-04-30T06:35:16.443Z,1916.00
2018-04-30T06:36:16.454Z,2116.00
2018-04-30T06:37:16.460Z,2316.00
2018-04-30T06:38:16.477Z,2304.00
2018-04-30T06:39:16.484Z,2336.00
2018-04-30T06:40:16.494Z,2352.00
2018-04-30T06:41:16.522Z,2348.00
2018-04-30T06:42:16.586Z,2336.00
2018-04-30T06:43:16.550Z,2332.00
2018-04-30T06:44:16.532Z,2344.00
2018-04-30T06:45:16.549Z,2352.00
2018-04-30T06:46:16.550Z,2368.00
2018-04-30T06:47:16.573Z,2388.00
2018-04-30T06:48:16.583Z,2412.00
2018-04-30T06:49:16.581Z,2428.00
2018-04-30T06:50:16.633Z,2456.00
2018-04-30T06:51:16.602Z,2480.00
2018-04-30T06:52:16.611Z,2460.00
2018-04-30T06:53:16.621Z,2548.00
2018-04-30T06:54:16.650Z,2544.00
2018-04-30T06:55:16.654Z,2472.00
2018-04-30T06:56:16.666Z,2480.00
2018-04-30T06:57:16.660Z,2564.00
2018-04-30T06:58:16.699Z,2536.00
2018-04-30T06:59:16.679Z,2500.00
2018-04-30T07:00:16.715Z,2532.00
2018-04-30T07:01:16.697Z,2560.00
2018-04-30T07:02:16.705Z,2580.00
2018-04-30T07:03:16.720Z,2624.00
2018-04-30T07:04:16.727Z,2720.00
2018-04-30T07:05:16.740Z,2668.00
2018-04-30T07:06:16.746Z,2880.00
2018-04-30T07:07:16.761Z,3164.00
2018-04-30T07:08:16.766Z,3424.00
2018-04-30T07:09:16.952Z,3932.00
2018-04-30T07:10:16.787Z,4448.00
2018-04-30T07:11:16.809Z,5100.00
2018-04-30T07:12:16.809Z,8680.00
2018-04-30T07:13:16.856Z,9572.00
2018-04-30T07:14:16.825Z,7492.00
2018-04-30T07:15:16.840Z,5916.00
2018-04-30T07:16:16.851Z,7608.00
2018-04-30T07:17:16.854Z,8168.00
2018-04-30T07:18:16.870Z,6540.00
2018-04-30T07:19:16.879Z,8072.00
2018-04-30T07:20:16.889Z,9932.00
2018-04-30T07:21:16.896Z,8272.00
2018-04-30T07:22:16.907Z,9372.00
2018-04-30T07:23:16.917Z,7688.00
2018-04-30T07:24:16.974Z,8880.00
2018-04-30T07:25:16.940Z,9016.00
2018-04-30T07:26:16.991Z,8436.00
2018-04-30T07:27:16.962Z,9516.00
2018-04-30T07:28:16.973Z,8408.00
2018-04-30T07:29:17.008Z,7964.00
2018-04-30T07:30:16.991Z,9068.00
2018-04-30T07:31:17.004Z,9368.00
2018-04-30T07:32:17.021Z,9428.00
2018-04-30T07:33:17.085Z,8860.00
2018-04-30T07:34:17.048Z,7288.00
2018-04-30T07:35:17.051Z,9244.00
2018-04-30T07:36:17.056Z,10464.00
2018-04-30T07:37:17.067Z,8860.00
2018-04-30T07:38:17.076Z,7972.00
2018-04-30T07:39:17.099Z,8632.00
2018-04-30T07:40:17.100Z,9620.00
2018-04-30T07:41:17.119Z,9020.00
2018-04-30T07:42:17.130Z,6680.00
2018-04-30T07:43:17.248Z,6732.00
2018-04-30T07:44:17.164Z,6332.00
2018-04-30T07:45:17.157Z,8896.00
2018-04-30T07:46:17.170Z,7056.00
2018-04-30T07:47:17.205Z,6380.00
2018-04-30T07:48:17.193Z,7900.00
2018-04-30T07:49:17.245Z,6228.00
2018-04-30T07:50:17.211Z,4092.00
2018-04-30T07:51:17.225Z,3828.00
2018-04-30T07:52:17.232Z,3864.00
2018-04-30T07:53:17.372Z,3328.00
2018-04-30T07:54:17.256Z,3384.00
2018-04-30T07:55:17.264Z,3228.00
2018-04-30T07:56:17.278Z,3296.00
2018-04-30T07:57:17.336Z,3508.00
2018-04-30T07:58:17.368Z,3300.00
2018-04-30T07:59:17.362Z,3092.00
2018-04-30T08:00:17.320Z,3476.00
2018-04-30T08:01:17.331Z,3280.00
2018-04-30T08:02:17.339Z,2864.00
2018-04-30T08:03:17.352Z,3264.00
2018-04-30T08:04:17.367Z,3252.00
2018-04-30T08:05:17.418Z,3016.00
2018-04-30T08:06:17.414Z,2980.00
2018-04-30T08:07:17.394Z,2980.00
2018-04-30T08:08:17.443Z,3112.00
2018-04-30T08:09:17.418Z,3468.00
2018-04-30T08:10:17.428Z,2920.00
2018-04-30T08:11:17.589Z,2924.00
2018-04-30T08:12:17.532Z,2948.00
2018-04-30T08:13:17.752Z,2996.00
2018-04-30T08:14:17.501Z,2976.00
2018-04-30T08:15:17.714Z,3140.00
2018-04-30T08:16:17.499Z,3236.00
2018-04-30T08:17:17.498Z,3712.00
2018-04-30T08:18:17.530Z,3988.00
2018-04-30T08:19:17.578Z,3244.00
2018-04-30T08:20:17.575Z,4268.00
2018-04-30T08:21:26.596Z,3640.00
2018-04-30T08:23:22.229Z,3104.00
2018-04-30T08:24:22.071Z,3044.00
2018-04-30T08:25:22.332Z,3180.00
2018-04-30T08:26:22.457Z,3248.00
2018-04-30T08:27:22.234Z,3276.00
2018-04-30T08:28:22.214Z,3188.00
2018-04-30T08:31:22.294Z,3416.00
2018-04-30T08:32:23.539Z,3136.00
2018-04-30T08:33:23.061Z,3200.00
2018-04-30T08:34:23.644Z,3288.00
2018-04-30T08:35:23.414Z,3536.00
2018-04-30T08:36:30.129Z,4144.00
2018-04-30T08:38:37.855Z,3200.00
2018-04-30T08:39:20.400Z,4388.00
2018-04-30T08:40:18.363Z,4164.00
2018-04-30T08:41:22.308Z,4904.00
2018-04-30T08:42:18.837Z,4044.00
2018-04-30T08:43:18.917Z,4180.00
2018-04-30T08:44:18.251Z,3424.00
2018-04-30T08:45:18.282Z,3816.00
2018-04-30T08:46:18.571Z,3052.00
2018-04-30T08:47:19.139Z,3416.00
2018-04-30T08:48:18.294Z,3260.00
2018-04-30T08:49:18.311Z,3332.00
2018-04-30T08:50:18.665Z,3412.00
2018-04-30T08:51:18.327Z,3684.00
2018-04-30T08:52:19.133Z,3404.00
2018-04-30T08:53:18.356Z,3632.00
2018-04-30T08:54:18.362Z,3864.00
2018-04-30T08:55:19.283Z,4048.00
2018-04-30T08:56:18.403Z,4792.00
2018-04-30T08:57:18.423Z,5044.00
2018-04-30T08:58:18.582Z,4508.00
2018-04-30T08:59:18.416Z,5096.00
2018-04-30T09:00:18.510Z,5040.00
2018-04-30T09:01:18.441Z,4824.00
2018-04-30T09:02:18.449Z,5036.00
2018-04-30T09:03:18.365Z,5532.00
2018-04-30T09:04:18.476Z,4828.00
2018-04-30T09:05:18.509Z,5488.00
2018-04-30T09:06:18.510Z,6612.00
2018-04-30T09:07:18.504Z,7532.00
2018-04-30T09:08:18.587Z,4304.00
2018-04-30T09:09:18.532Z,4156.00
2018-04-30T09:10:18.539Z,5136.00
2018-04-30T09:11:18.549Z,4548.00
2018-04-30T09:12:18.560Z,3948.00
2018-04-30T09:13:18.573Z,5128.00
2018-04-30T09:14:18.599Z,4600.00
2018-04-30T09:15:18.599Z,4904.00
2018-04-30T09:16:18.608Z,4080.00
2018-04-30T09:17:18.617Z,4912.00
2018-04-30T09:18:18.634Z,4420.00
2018-04-30T09:19:18.637Z,4808.00
2018-04-30T09:20:18.655Z,4372.00
2018-04-30T09:21:18.663Z,4288.00
2018-04-30T09:22:18.682Z,3928.00
2018-04-30T09:23:18.791Z,5444.00
2018-04-30T09:24:18.731Z,4488.00
2018-04-30T09:25:18.706Z,3272.00
2018-04-30T09:26:18.733Z,4356.00
2018-04-30T09:27:18.749Z,4240.00
2018-04-30T09:28:18.739Z,6552.00
2018-04-30T09:29:18.753Z,5344.00
2018-04-30T09:30:18.789Z,4952.00
2018-04-30T09:31:18.776Z,4724.00
2018-04-30T09:32:18.784Z,6144.00
2018-04-30T09:33:18.828Z,6408.00
2018-04-30T09:34:18.812Z,6328.00
2018-04-30T09:35:18.821Z,5796.00
2018-04-30T09:36:18.835Z,5468.00
2018-04-30T09:37:18.848Z,5004.00
2018-04-30T09:38:18.852Z,5428.00
2018-04-30T09:39:18.866Z,6608.00
2018-04-30T09:40:18.812Z,9188.00
2018-04-30T09:41:19.642Z,8324.00
2018-04-30T09:42:18.898Z,8084.00
2018-04-30T09:43:18.910Z,7944.00
2018-04-30T09:44:18.924Z,5164.00
2018-04-30T09:45:18.945Z,6692.00
2018-04-30T09:46:18.944Z,5248.00
2018-04-30T09:47:18.961Z,6044.00
2018-04-30T09:48:18.967Z,6664.00
2018-04-30T09:49:19.051Z,6100.00
2018-04-30T09:50:18.898Z,5596.00
2018-04-30T09:51:19.004Z,5920.00
2018-04-30T09:52:19.054Z,6768.00
2018-04-30T09:53:19.028Z,7636.00
2018-04-30T09:54:19.037Z,6636.00
2018-04-30T09:55:19.050Z,6344.00
2018-04-30T09:56:19.060Z,6080.00
2018-04-30T09:57:19.075Z,7184.00
2018-04-30T09:58:19.220Z,6072.00
2018-04-30T09:59:19.230Z,6400.00
2018-04-30T10:00:19.173Z,7328.00
2018-04-30T10:01:19.122Z,7416.00
2018-04-30T10:02:19.131Z,6676.00
2018-04-30T10:03:19.145Z,7096.00
2018-04-30T10:04:19.154Z,7864.00
2018-04-30T10:05:19.164Z,8468.00
2018-04-30T10:06:20.142Z,8184.00
2018-04-30T10:07:19.265Z,7044.00
2018-04-30T10:08:19.202Z,7104.00
2018-04-30T10:09:19.220Z,6888.00
2018-04-30T10:10:19.225Z,7084.00
2018-04-30T10:11:19.237Z,9260.00
2018-04-30T10:12:19.250Z,7828.00
2018-04-30T10:13:19.263Z,10676.00
2018-04-30T10:14:19.274Z,9820.00
2018-04-30T10:15:19.285Z,9472.00
2018-04-30T10:16:19.307Z,10216.00
2018-04-30T10:17:19.308Z,9332.00
2018-04-30T10:18:19.323Z,6612.00
2018-04-30T10:19:19.335Z,6440.00
2018-04-30T10:20:19.350Z,8012.00
2018-04-30T10:21:19.363Z,11060.00
2018-04-30T10:22:19.367Z,12172.00
2018-04-30T10:23:19.482Z,11312.00
2018-04-30T10:24:19.397Z,9680.00
2018-04-30T10:25:19.406Z,8260.00
2018-04-30T10:26:19.419Z,6492.00
2018-04-30T10:27:19.432Z,6696.00
2018-04-30T10:28:19.449Z,7188.00
2018-04-30T10:29:19.455Z,5708.00
2018-04-30T10:30:19.491Z,7920.00
2018-04-30T10:31:19.377Z,8076.00
2018-04-30T10:32:19.494Z,10004.00
2018-04-30T10:33:19.504Z,10200.00
2018-04-30T10:34:19.520Z,6272.00
2018-04-30T10:35:19.531Z,9512.00
2018-04-30T10:36:19.553Z,9436.00
2018-04-30T10:37:19.563Z,7020.00
2018-04-30T10:38:19.567Z,8048.00
2018-04-30T10:39:19.578Z,6604.00
2018-04-30T10:40:19.592Z,7612.00
2018-04-30T10:41:19.615Z,6200.00
2018-04-30T10:42:19.618Z,7192.00
2018-04-30T10:43:19.635Z,9244.00
2018-04-30T10:44:19.649Z,9232.00
2018-04-30T10:45:19.653Z,8656.00
2018-04-30T10:46:19.669Z,7052.00
2018-04-30T10:47:19.679Z,6036.00
2018-04-30T10:48:19.698Z,6576.00
2018-04-30T10:49:19.706Z,6940.00
2018-04-30T10:50:19.722Z,6100.00
2018-04-30T10:51:19.732Z,5364.00
2018-04-30T10:52:19.742Z,5400.00
2018-04-30T10:53:19.788Z,5268.00
2018-04-30T10:54:19.779Z,5492.00
2018-04-30T10:55:19.873Z,6304.00
2018-04-30T10:56:19.832Z,7812.00
2018-04-30T10:57:19.831Z,8744.00
2018-04-30T10:58:19.822Z,7376.00
2018-04-30T10:59:19.845Z,7068.00
2018-04-30T11:00:19.900Z,9848.00
2018-04-30T11:01:19.888Z,5196.00
2018-04-30T11:02:19.957Z,5576.00
2018-04-30T11:03:19.883Z,5568.00
2018-04-30T11:04:19.896Z,5816.00
2018-04-30T11:05:19.915Z,7772.00
2018-04-30T11:06:19.922Z,10520.00
2018-04-30T11:07:19.935Z,6928.00
2018-04-30T11:08:19.949Z,8284.00
2018-04-30T11:09:19.963Z,11112.00
2018-04-30T11:10:19.982Z,38880.00
2018-04-30T11:11:20.024Z,100832.00
2018-04-30T11:12:20.081Z,125408.00
2018-04-30T11:13:20.024Z,123584.00
2018-04-30T11:14:20.032Z,121568.00
2018-04-30T11:15:20.048Z,108064.00
2018-04-30T11:16:20.064Z,121248.00
2018-04-30T11:17:20.081Z,123904.00
2018-04-30T11:18:20.096Z,124704.00
2018-04-30T11:19:20.112Z,128448.00
2018-04-30T11:20:20.131Z,126784.00
2018-04-30T11:21:20.163Z,124480.00
2018-04-30T11:22:20.167Z,121376.00
2018-04-30T11:23:20.188Z,123488.00
2018-04-30T11:24:20.207Z,120096.00
2018-04-30T11:25:20.231Z,122880.00
2018-04-30T11:26:20.180Z,129504.00
2018-04-30T11:27:20.286Z,135328.00
2018-04-30T11:28:20.289Z,129984.00
2018-04-30T11:29:20.316Z,124128.00
2018-04-30T11:30:20.332Z,121344.00
2018-04-30T11:31:20.354Z,123200.00
2018-04-30T11:32:20.378Z,121824.00
2018-04-30T11:33:20.399Z,119232.00
2018-04-30T11:34:20.429Z,123232.00
2018-04-30T11:35:20.442Z,129376.00
2018-04-30T11:36:20.464Z,129728.00
2018-04-30T11:37:20.487Z,118304.00
2018-04-30T11:38:20.533Z,98912.00
2018-04-30T11:39:20.536Z,85472.00
2018-04-30T11:40:20.562Z,95904.00
2018-04-30T11:41:20.663Z,115488.00
2018-04-30T11:42:20.602Z,122656.00
2018-04-30T11:46:25.439Z,113984.00
2018-04-30T11:47:25.523Z,102752.00
2018-04-30T11:49:18.814Z,96480.00
2018-04-30T11:50:18.864Z,112608.00
2018-04-30T11:51:18.913Z,129824.00
2018-04-30T11:52:19.170Z,139520.00
2018-04-30T11:53:18.892Z,138720.00
2018-04-30T11:54:18.917Z,139168.00
2018-04-30T11:55:18.944Z,138720.00
2018-04-30T11:56:18.958Z,136992.00
2018-04-30T11:57:19.017Z,133984.00
2018-04-30T11:58:19.047Z,131616.00
2018-04-30T11:59:19.037Z,128128.00
2018-04-30T12:00:19.053Z,125536.00
2018-04-30T12:01:19.079Z,74464.00
2018-04-30T12:02:19.107Z,23104.00
2018-04-30T12:03:19.135Z,128416.00
2018-04-30T12:04:19.202Z,128768.00
2018-04-30T12:05:19.176Z,126528.00
2018-04-30T12:06:19.232Z,124448.00
2018-04-30T12:07:19.226Z,125152.00
2018-04-30T12:08:19.260Z,125568.00
2018-04-30T12:09:19.290Z,28544.00
2018-04-30T12:10:19.307Z,109664.00
2018-04-30T12:11:19.345Z,112576.00
2018-04-30T12:12:19.365Z,118496.00
2018-04-30T12:13:19.376Z,116512.00
2018-04-30T12:14:19.399Z,113472.00
2018-04-30T12:15:19.437Z,118112.00
2018-04-30T12:16:19.452Z,121888.00
2018-04-30T12:17:19.500Z,128960.00
2018-04-30T12:18:19.497Z,131328.00
2018-04-30T12:19:19.529Z,127584.00
2018-04-30T12:20:19.555Z,125792.00
2018-04-30T12:21:19.574Z,23456.00
2018-04-30T12:22:19.611Z,127136.00
2018-04-30T12:23:19.656Z,128480.00
2018-04-30T12:24:19.673Z,132032.00
2018-04-30T12:25:19.684Z,134560.00
2018-04-30T12:26:19.703Z,135648.00
2018-04-30T12:27:19.733Z,68544.00
2018-04-30T12:28:19.757Z,12808.00
2018-04-30T12:29:19.782Z,137536.00
2018-04-30T12:30:19.910Z,130592.00
2018-04-30T12:31:19.833Z,119584.00
2018-04-30T12:32:19.970Z,104064.00
2018-04-30T12:33:19.885Z,99104.00
2018-04-30T12:34:19.913Z,111232.00
2018-04-30T12:35:19.935Z,129376.00
2018-04-30T12:36:19.962Z,134944.00
2018-04-30T12:37:19.986Z,128928.00
2018-04-30T12:38:20.037Z,114496.00
2018-04-30T12:39:20.039Z,102752.00
2018-04-30T12:40:20.063Z,108480.00
2018-04-30T12:41:20.090Z,19104.00
2018-04-30T12:42:20.150Z,122464.00
2018-04-30T12:43:20.144Z,118368.00
2018-04-30T12:44:20.171Z,119584.00
2018-04-30T12:47:39.272Z,111360.00
2018-04-30T12:48:39.153Z,111584.00
2018-04-30T12:50:43.849Z,128224.00
2018-04-30T12:51:43.635Z,126464.00
2018-04-30T12:53:38.428Z,111584.00
2018-04-30T12:54:38.613Z,107520.00
2018-04-30T12:56:43.073Z,116800.00